createdAt,value
2023-05-23T00:00:01.913Z,51.64
2023-05-23T00:01:01.930Z,51.98
2023-05-23T00:02:02.023Z,52.07
2023-05-23T00:03:02.098Z,51.80
2023-05-23T00:04:02.234Z,51.91
2023-05-23T00:05:02.085Z,52.00
2023-05-23T00:06:02.070Z,52.02
2023-05-23T00:07:02.069Z,51.87
2023-05-23T00:08:02.164Z,51.72
2023-05-23T00:09:02.082Z,51.28
2023-05-23T00:10:02.121Z,51.47
2023-05-23T00:11:02.141Z,51.70
2023-05-23T00:12:02.107Z,51.69
2023-05-23T00:13:02.155Z,51.39
2023-05-23T00:14:02.206Z,51.55
2023-05-23T00:15:02.177Z,51.58
2023-05-23T00:16:02.245Z,51.79
2023-05-23T00:17:02.257Z,51.87
2023-05-23T00:18:02.361Z,51.83
2023-05-23T00:19:02.373Z,51.83
2023-05-23T00:20:02.323Z,52.06
2023-05-23T00:21:02.427Z,51.99
2023-05-23T00:22:02.379Z,51.96
2023-05-23T00:23:02.391Z,52.23
2023-05-23T00:24:02.478Z,52.64
2023-05-23T00:25:02.440Z,52.42
2023-05-23T00:26:02.465Z,52.42
2023-05-23T00:27:02.518Z,52.52
2023-05-23T00:28:02.600Z,52.31
2023-05-23T00:29:02.630Z,52.56
2023-05-23T00:30:02.654Z,52.69
2023-05-23T00:31:02.724Z,53.03
2023-05-23T00:32:02.734Z,52.76
2023-05-23T00:33:02.818Z,52.99
2023-05-23T00:34:02.824Z,53.49
2023-05-23T00:35:02.829Z,53.65
2023-05-23T00:36:02.855Z,53.89
2023-05-23T00:37:02.893Z,54.17
2023-05-23T00:38:02.901Z,54.07
2023-05-23T00:39:02.957Z,53.90
2023-05-23T00:40:03.040Z,53.64
2023-05-23T00:41:03.028Z,53.61
2023-05-23T00:42:03.050Z,53.36
2023-05-23T00:43:03.106Z,53.44
2023-05-23T00:44:03.128Z,53.19
2023-05-23T00:45:03.158Z,53.04
2023-05-23T00:46:03.175Z,52.98
2023-05-23T00:47:03.225Z,52.92
2023-05-23T00:48:03.278Z,53.11
2023-05-23T00:49:03.299Z,53.00
2023-05-23T00:50:03.283Z,53.27
2023-05-23T00:51:03.350Z,53.47
2023-05-23T00:52:03.380Z,53.81
2023-05-23T00:53:03.391Z,53.92
2023-05-23T00:54:03.473Z,54.27
2023-05-23T00:55:03.528Z,54.53
2023-05-23T00:56:03.613Z,54.58
2023-05-23T00:57:03.598Z,54.36
2023-05-23T00:58:03.635Z,54.61
2023-05-23T00:59:03.662Z,54.29
2023-05-23T01:00:03.723Z,53.95
2023-05-23T01:01:03.757Z,53.95
2023-05-23T01:02:03.797Z,54.05
2023-05-23T01:03:03.968Z,53.95
2023-05-23T01:04:03.925Z,53.52
2023-05-23T01:05:03.821Z,53.79
2023-05-23T01:06:03.872Z,53.98
2023-05-23T01:07:03.901Z,53.61
2023-05-23T01:08:03.920Z,53.77
2023-05-23T01:10:23.500Z,53.82
2023-05-23T01:11:23.542Z,53.76
2023-05-23T01:12:23.565Z,53.51
2023-05-23T01:13:23.561Z,53.19
2023-05-23T01:14:23.549Z,52.98
2023-05-23T01:15:23.518Z,53.07
2023-05-23T01:16:23.519Z,52.96
2023-05-23T01:17:23.542Z,52.83
2023-05-23T01:18:23.518Z,52.95
2023-05-23T01:19:23.601Z,53.16
2023-05-23T01:20:23.481Z,52.87
2023-05-23T01:21:23.460Z,52.53
2023-05-23T01:22:23.494Z,52.72
2023-05-23T01:23:23.435Z,52.51
2023-05-23T01:24:23.466Z,52.57
2023-05-23T01:25:23.417Z,53.38
2023-05-23T01:26:23.451Z,53.23
2023-05-23T01:27:23.497Z,53.07
2023-05-23T01:28:23.434Z,53.17
2023-05-23T01:29:23.447Z,53.01
2023-05-23T01:30:23.414Z,52.94
2023-05-23T01:31:23.459Z,53.05
2023-05-23T01:32:23.392Z,53.56
2023-05-23T01:33:23.400Z,53.71
2023-05-23T01:34:23.407Z,53.70
2023-05-23T01:35:23.348Z,53.81
2023-05-23T01:36:23.350Z,53.78
2023-05-23T01:37:23.329Z,54.36
2023-05-23T01:38:23.333Z,54.95
2023-05-23T01:39:23.340Z,55.41
2023-05-23T01:40:23.346Z,55.52
2023-05-23T01:41:23.324Z,55.36
2023-05-23T01:42:23.321Z,55.07
2023-05-23T01:43:23.404Z,56.01
2023-05-23T01:44:23.277Z,55.99
2023-05-23T01:45:23.300Z,56.00
2023-05-23T01:46:23.481Z,56.01
2023-05-23T01:47:23.307Z,56.15
2023-05-23T01:48:23.237Z,57.09
2023-05-23T01:49:23.278Z,57.83
2023-05-23T01:50:23.261Z,58.44
2023-05-23T01:51:23.245Z,57.89
2023-05-23T01:52:23.247Z,57.78
2023-05-23T01:53:23.239Z,58.92
2023-05-23T01:54:23.237Z,58.86
2023-05-23T01:55:23.207Z,59.60
2023-05-23T01:56:23.216Z,59.29
2023-05-23T01:57:23.224Z,60.41
2023-05-23T01:58:23.210Z,60.67
2023-05-23T01:59:23.258Z,61.26
2023-05-23T02:00:23.139Z,61.06
2023-05-23T02:01:23.214Z,61.51
2023-05-23T02:02:23.244Z,61.67
2023-05-23T02:03:23.284Z,61.42
2023-05-23T02:04:23.167Z,61.26
2023-05-23T02:05:23.159Z,62.20
2023-05-23T02:06:23.130Z,62.20
2023-05-23T02:07:23.159Z,61.95
2023-05-23T02:08:23.117Z,62.96
2023-05-23T02:09:23.138Z,63.31
2023-05-23T02:10:23.104Z,63.33
2023-05-23T02:11:23.110Z,63.77
2023-05-23T02:12:23.075Z,63.56
2023-05-23T02:13:23.099Z,63.71
2023-05-23T02:14:23.075Z,63.34
2023-05-23T02:15:23.133Z,63.21
2023-05-23T02:16:23.106Z,63.33
2023-05-23T02:17:23.184Z,63.08
2023-05-23T02:18:23.075Z,63.69
2023-05-23T02:19:23.122Z,62.90
2023-05-23T02:20:23.120Z,62.79
2023-05-23T02:21:23.124Z,63.25
2023-05-23T02:22:23.162Z,62.70
2023-05-23T02:23:23.189Z,63.10
2023-05-23T02:24:23.231Z,63.99
2023-05-23T02:25:23.244Z,64.48
2023-05-23T02:26:23.306Z,64.10
2023-05-23T02:27:23.281Z,64.15
2023-05-23T02:28:23.342Z,64.73
2023-05-23T02:29:23.321Z,63.95
2023-05-23T02:30:23.363Z,63.91
2023-05-23T02:31:23.494Z,64.25
2023-05-23T02:32:23.410Z,65.19
2023-05-23T02:33:23.509Z,66.05
2023-05-23T02:34:23.528Z,66.36
2023-05-23T02:35:23.525Z,66.36
2023-05-23T02:36:23.530Z,66.75
2023-05-23T02:37:23.590Z,66.66
2023-05-23T02:38:23.575Z,66.38
2023-05-23T02:39:23.614Z,67.44
2023-05-23T02:40:23.582Z,68.51
2023-05-23T02:41:23.638Z,69.25
2023-05-23T02:42:23.662Z,70.04
2023-05-23T02:43:23.717Z,70.28
2023-05-23T02:44:23.753Z,70.49
2023-05-23T02:45:23.764Z,69.86
2023-05-23T02:46:23.789Z,68.96
2023-05-23T02:47:23.822Z,68.77
2023-05-23T02:48:23.774Z,68.11
2023-05-23T02:49:23.850Z,68.09
2023-05-23T02:50:23.798Z,68.12
2023-05-23T02:51:23.873Z,68.11
2023-05-23T02:52:23.914Z,67.74
2023-05-23T02:53:23.956Z,68.20
2023-05-23T02:54:24.010Z,67.77
2023-05-23T02:55:24.095Z,67.51
2023-05-23T02:56:24.117Z,66.82
2023-05-23T02:57:24.187Z,66.92
2023-05-23T02:58:24.191Z,66.67
2023-05-23T02:59:24.233Z,66.45
2023-05-23T03:00:24.248Z,66.54
2023-05-23T03:01:24.338Z,66.06
2023-05-23T03:02:24.351Z,65.93
2023-05-23T03:03:24.520Z,66.19
2023-05-23T03:04:24.390Z,65.84
2023-05-23T03:05:24.439Z,65.40
2023-05-23T03:06:26.052Z,65.29
2023-05-23T03:07:28.708Z,65.04
2023-05-23T03:08:24.488Z,65.30
2023-05-23T03:09:24.472Z,65.29
2023-05-23T03:10:24.466Z,65.15
2023-05-23T03:11:24.451Z,65.08
2023-05-23T03:12:24.480Z,65.40
2023-05-23T03:13:24.445Z,65.87
2023-05-23T03:14:24.461Z,65.94
2023-05-23T03:15:24.445Z,66.36
2023-05-23T03:16:24.480Z,66.30
2023-05-23T03:17:24.455Z,66.07
2023-05-23T03:18:24.402Z,65.69
2023-05-23T03:19:24.579Z,65.26
2023-05-23T03:20:24.421Z,65.61
2023-05-23T03:21:24.418Z,65.97
2023-05-23T03:22:24.383Z,65.75
2023-05-23T03:23:24.403Z,65.80
2023-05-23T03:24:24.404Z,65.65
2023-05-23T03:25:24.377Z,65.97
2023-05-23T03:26:24.359Z,66.22
2023-05-23T03:27:24.366Z,65.96
2023-05-23T03:28:24.377Z,65.76
2023-05-23T03:29:24.389Z,65.34
2023-05-23T03:30:24.333Z,65.26
2023-05-23T03:31:24.377Z,65.24
2023-05-23T03:32:24.454Z,64.91
2023-05-23T03:33:24.411Z,65.29
2023-05-23T03:34:24.493Z,65.06
2023-05-23T03:35:24.566Z,65.26
2023-05-23T03:36:24.530Z,66.64
2023-05-23T03:37:24.592Z,66.08
2023-05-23T03:38:24.647Z,66.53
2023-05-23T03:39:24.698Z,65.29
2023-05-23T03:40:24.761Z,64.77
2023-05-23T03:41:24.759Z,66.01
2023-05-23T03:42:24.835Z,66.97
2023-05-23T03:43:24.838Z,65.38
2023-05-23T03:44:24.847Z,64.95
2023-05-23T03:45:24.840Z,65.10
2023-05-23T03:46:24.871Z,64.60
2023-05-23T03:47:24.905Z,65.47
2023-05-23T03:48:24.919Z,64.77
2023-05-23T03:49:24.922Z,64.63
2023-05-23T03:50:24.985Z,64.41
2023-05-23T03:51:25.064Z,64.47
2023-05-23T03:52:24.993Z,65.27
2023-05-23T03:53:25.063Z,66.20
2023-05-23T03:54:25.110Z,66.83
2023-05-23T03:55:25.078Z,67.11
2023-05-23T03:56:25.129Z,67.33
2023-05-23T03:57:25.121Z,67.94
2023-05-23T03:58:25.094Z,67.74
2023-05-23T03:59:25.142Z,68.41
2023-05-23T04:00:25.151Z,68.52
2023-05-23T04:01:25.160Z,68.91
2023-05-23T04:02:25.240Z,69.20
2023-05-23T04:03:25.285Z,69.53
2023-05-23T04:04:25.339Z,70.02
2023-05-23T04:05:25.257Z,70.63
2023-05-23T04:06:25.302Z,70.05
2023-05-23T04:07:26.249Z,69.94
2023-05-23T04:08:25.362Z,69.82
2023-05-23T04:09:25.366Z,69.67
2023-05-23T04:10:25.462Z,69.95
2023-05-23T04:11:25.420Z,69.77
2023-05-23T04:12:25.416Z,70.02
2023-05-23T04:13:25.445Z,70.19
2023-05-23T04:14:25.483Z,69.92
2023-05-23T04:15:25.524Z,69.89
2023-05-23T04:16:25.616Z,70.07
2023-05-23T04:17:25.713Z,70.14
2023-05-23T04:18:25.630Z,70.14
2023-05-23T04:19:25.752Z,70.09
2023-05-23T04:20:25.728Z,70.23
2023-05-23T04:21:25.765Z,70.60
2023-05-23T04:22:25.822Z,70.37
2023-05-23T04:23:25.870Z,70.47
2023-05-23T04:24:25.825Z,70.80
2023-05-23T04:25:25.831Z,70.54
2023-05-23T04:26:25.846Z,71.04
2023-05-23T04:27:25.901Z,70.55
2023-05-23T04:28:25.891Z,70.33
2023-05-23T04:29:25.988Z,70.07
2023-05-23T04:30:26.031Z,69.94
2023-05-23T04:31:26.094Z,70.08
2023-05-23T04:32:26.056Z,70.22
2023-05-23T04:33:26.105Z,70.36
2023-05-23T04:34:26.168Z,71.14
2023-05-23T04:35:26.214Z,71.67
2023-05-23T04:36:26.217Z,71.53
2023-05-23T04:37:26.560Z,72.06
2023-05-23T04:38:26.279Z,71.78
2023-05-23T04:39:26.425Z,71.81
2023-05-23T04:40:26.377Z,71.54
2023-05-23T04:41:26.487Z,71.34
2023-05-23T04:42:26.469Z,71.12
2023-05-23T04:43:26.551Z,71.60
2023-05-23T04:44:26.593Z,73.29
2023-05-23T04:45:26.606Z,73.94
2023-05-23T04:46:26.761Z,75.05
2023-05-23T04:47:26.616Z,75.12
2023-05-23T04:48:26.610Z,74.68
2023-05-23T04:49:26.713Z,74.42
2023-05-23T04:50:26.728Z,73.77
2023-05-23T04:51:26.762Z,73.25
2023-05-23T04:52:26.769Z,72.97
2023-05-23T04:53:26.792Z,72.78
2023-05-23T04:54:26.848Z,73.86
2023-05-23T04:55:26.901Z,73.70
2023-05-23T04:56:26.870Z,74.40
2023-05-23T04:57:26.899Z,74.50
2023-05-23T04:58:26.943Z,75.12
2023-05-23T04:59:26.930Z,74.16
2023-05-23T05:00:26.966Z,73.95
2023-05-23T05:01:27.483Z,73.64
2023-05-23T05:02:27.124Z,73.26
2023-05-23T05:03:27.137Z,72.82
2023-05-23T05:04:27.312Z,73.35
2023-05-23T05:05:27.227Z,73.11
2023-05-23T05:06:27.249Z,73.70
2023-05-23T05:07:27.328Z,74.09
2023-05-23T05:08:27.367Z,73.99
2023-05-23T05:09:27.407Z,73.79
2023-05-23T05:10:27.418Z,73.47
2023-05-23T05:11:27.496Z,73.33
2023-05-23T05:12:27.490Z,73.14
2023-05-23T05:13:27.560Z,73.85
2023-05-23T05:14:27.605Z,72.74
2023-05-23T05:15:27.655Z,73.05
2023-05-23T05:16:27.696Z,72.60
2023-05-23T05:17:27.827Z,73.62
2023-05-23T05:18:27.756Z,73.27
2023-05-23T05:19:27.825Z,73.40
2023-05-23T05:20:27.814Z,73.14
2023-05-23T05:21:27.858Z,74.02
2023-05-23T05:22:27.893Z,73.52
2023-05-23T05:23:27.951Z,73.57
2023-05-23T05:24:28.027Z,74.13
2023-05-23T05:25:28.002Z,74.82
2023-05-23T05:26:28.015Z,74.92
2023-05-23T05:27:28.169Z,73.63
2023-05-23T05:28:28.063Z,74.18
2023-05-23T05:29:28.112Z,74.53
2023-05-23T05:30:28.109Z,74.19
2023-05-23T05:31:28.229Z,74.16
2023-05-23T05:32:28.248Z,74.35
2023-05-23T05:33:28.306Z,74.19
2023-05-23T05:34:28.331Z,73.56
2023-05-23T05:35:28.361Z,73.43
2023-05-23T05:36:28.373Z,73.87
2023-05-23T05:37:28.480Z,74.16
2023-05-23T05:38:28.477Z,73.52
2023-05-23T05:39:28.604Z,73.51
2023-05-23T05:40:28.572Z,73.71
2023-05-23T05:41:28.609Z,74.18
2023-05-23T05:42:28.613Z,74.44
2023-05-23T05:43:28.722Z,74.50
2023-05-23T05:44:28.685Z,74.34
2023-05-23T05:45:28.740Z,73.98
2023-05-23T05:46:28.802Z,73.39
2023-05-23T05:47:28.805Z,73.46
2023-05-23T05:48:28.846Z,73.26
2023-05-23T05:49:28.864Z,73.17
2023-05-23T05:50:28.841Z,73.13
2023-05-23T05:51:28.897Z,72.52
2023-05-23T05:52:28.915Z,73.22
2023-05-23T05:53:28.961Z,73.48
2023-05-23T05:54:29.003Z,73.11
2023-05-23T05:55:29.080Z,73.58
2023-05-23T05:56:29.124Z,73.45
2023-05-23T05:57:29.077Z,72.68
2023-05-23T05:58:29.106Z,72.84
2023-05-23T05:59:30.573Z,72.75
2023-05-23T06:00:29.111Z,73.17
2023-05-23T06:01:29.134Z,73.08
2023-05-23T06:02:29.127Z,73.25
2023-05-23T06:03:29.186Z,72.99
2023-05-23T06:04:29.133Z,72.13
2023-05-23T06:05:29.050Z,70.77
2023-05-23T06:06:29.047Z,72.02
2023-05-23T06:07:29.060Z,71.53
2023-05-23T06:08:29.069Z,71.51
2023-05-23T06:09:29.056Z,70.97
2023-05-23T06:10:29.034Z,70.45
2023-05-23T06:11:29.069Z,70.51
2023-05-23T06:12:29.023Z,70.99
2023-05-23T06:13:29.090Z,71.31
2023-05-23T06:14:29.046Z,70.63
2023-05-23T06:15:29.061Z,70.81
2023-05-23T06:16:29.018Z,70.82
2023-05-23T06:17:29.029Z,70.20
2023-05-23T06:18:29.058Z,70.19
2023-05-23T06:19:29.055Z,69.70
2023-05-23T06:20:29.093Z,69.34
2023-05-23T06:21:28.961Z,68.70
2023-05-23T06:22:28.972Z,68.73
2023-05-23T06:23:28.935Z,68.77
2023-05-23T06:24:28.961Z,70.13
2023-05-23T06:25:28.918Z,71.07
2023-05-23T06:26:28.909Z,71.11
2023-05-23T06:27:28.949Z,71.63
2023-05-23T06:28:28.948Z,71.54
2023-05-23T06:29:28.956Z,71.47
2023-05-23T06:30:28.915Z,71.57
2023-05-23T06:31:28.998Z,71.16
2023-05-23T06:32:28.970Z,70.78
2023-05-23T06:33:28.891Z,71.29
2023-05-23T06:34:28.889Z,71.20
2023-05-23T06:35:28.852Z,70.81
2023-05-23T06:36:28.873Z,71.36
2023-05-23T06:37:28.885Z,70.92
2023-05-23T06:38:28.842Z,71.21
2023-05-23T06:39:28.853Z,72.07
2023-05-23T06:40:28.909Z,72.05
2023-05-23T06:41:28.824Z,72.09
2023-05-23T06:42:28.829Z,72.24
2023-05-23T06:43:28.808Z,72.75
2023-05-23T06:44:28.802Z,73.00
2023-05-23T06:45:28.804Z,73.53
2023-05-23T06:46:28.840Z,73.52
2023-05-23T06:47:28.939Z,73.93
2023-05-23T06:48:28.858Z,73.04
2023-05-23T06:49:28.966Z,72.75
2023-05-23T06:50:28.933Z,72.30
2023-05-23T06:51:29.119Z,72.81
2023-05-23T06:52:28.922Z,72.73
2023-05-23T06:53:28.987Z,72.41
2023-05-23T06:54:29.043Z,73.16
2023-05-23T06:55:29.063Z,72.84
2023-05-23T06:56:29.155Z,72.13
2023-05-23T06:57:29.134Z,73.10
2023-05-23T06:58:29.125Z,73.11
2023-05-23T06:59:29.193Z,72.57
2023-05-23T07:00:29.209Z,72.61
2023-05-23T07:01:29.225Z,72.56
2023-05-23T07:02:29.274Z,73.43
2023-05-23T07:03:29.345Z,73.31
2023-05-23T07:04:29.370Z,73.51
2023-05-23T07:05:29.440Z,73.63
2023-05-23T07:06:29.494Z,74.04
2023-05-23T07:07:29.480Z,73.40
2023-05-23T07:08:29.534Z,73.10
2023-05-23T07:09:29.582Z,73.27
2023-05-23T07:10:29.584Z,74.12
2023-05-23T07:11:29.629Z,73.98
2023-05-23T07:12:29.627Z,74.65
2023-05-23T07:13:29.673Z,74.60
2023-05-23T07:14:29.710Z,75.03
2023-05-23T07:15:31.680Z,75.11
2023-05-23T07:16:29.867Z,74.52
2023-05-23T07:17:29.786Z,75.58
2023-05-23T07:18:30.063Z,74.89
2023-05-23T07:19:29.947Z,74.65
2023-05-23T07:20:29.826Z,75.18
2023-05-23T07:21:29.855Z,75.19
2023-05-23T07:22:29.976Z,74.88
2023-05-23T07:23:29.862Z,74.92
2023-05-23T07:24:29.927Z,75.26
2023-05-23T07:25:29.915Z,75.38
2023-05-23T07:26:29.970Z,76.16
2023-05-23T07:27:29.970Z,76.14
2023-05-23T07:28:30.094Z,75.75
2023-05-23T07:29:30.007Z,75.93
2023-05-23T07:30:32.035Z,76.26
2023-05-23T07:31:30.012Z,76.49
2023-05-23T07:32:30.076Z,76.45
2023-05-23T07:33:30.039Z,76.32
2023-05-23T07:34:30.035Z,76.50
2023-05-23T07:35:30.006Z,76.22
2023-05-23T07:36:30.031Z,77.00
2023-05-23T07:37:30.069Z,76.96
2023-05-23T07:38:30.023Z,76.25
2023-05-23T07:39:29.970Z,76.10
2023-05-23T07:40:30.271Z,75.49
2023-05-23T07:41:29.981Z,75.03
2023-05-23T07:42:29.942Z,74.49
2023-05-23T07:43:29.949Z,74.64
2023-05-23T07:44:30.003Z,73.66
2023-05-23T07:45:30.046Z,73.58
2023-05-23T07:46:29.928Z,73.64
2023-05-23T07:47:30.020Z,74.16
2023-05-23T07:48:29.943Z,73.38
2023-05-23T07:49:29.940Z,73.16
2023-05-23T07:50:29.925Z,73.58
2023-05-23T07:51:29.937Z,73.30
2023-05-23T07:52:29.866Z,73.69
2023-05-23T07:53:29.864Z,73.53
2023-05-23T07:54:29.901Z,73.69
2023-05-23T07:55:29.861Z,73.12
2023-05-23T07:56:29.885Z,73.05
2023-05-23T07:57:29.822Z,73.22
2023-05-23T07:58:29.854Z,73.42
2023-05-23T07:59:29.859Z,73.14
2023-05-23T08:00:29.812Z,73.05
2023-05-23T08:01:29.878Z,72.76
2023-05-23T08:02:29.927Z,72.59
2023-05-23T08:03:29.809Z,72.73
2023-05-23T08:04:29.918Z,72.48
2023-05-23T08:05:29.810Z,72.19
2023-05-23T08:06:29.802Z,72.37
2023-05-23T08:07:29.809Z,72.40
2023-05-23T08:08:29.774Z,72.77
2023-05-23T08:09:29.826Z,72.81
2023-05-23T08:10:29.753Z,72.53
2023-05-23T08:11:29.746Z,72.41
2023-05-23T08:12:29.749Z,71.88
2023-05-23T08:13:29.737Z,72.38
2023-05-23T08:14:42.273Z,72.53
2023-05-23T08:15:30.816Z,72.76
2023-05-23T08:16:30.361Z,73.58
2023-05-23T08:17:29.775Z,74.44
2023-05-23T08:18:29.843Z,74.01
2023-05-23T08:19:29.772Z,74.27
2023-05-23T08:20:29.705Z,73.22
2023-05-23T08:21:29.685Z,73.99
2023-05-23T08:22:29.696Z,72.39
2023-05-23T08:23:29.751Z,72.60
2023-05-23T08:24:29.716Z,73.15
2023-05-23T08:25:29.676Z,72.78
2023-05-23T08:26:29.650Z,72.28
2023-05-23T08:27:29.692Z,71.47
2023-05-23T08:28:29.741Z,70.74
2023-05-23T08:29:29.830Z,70.53
2023-05-23T08:30:29.867Z,70.86
2023-05-23T08:31:29.973Z,71.10
2023-05-23T08:32:29.933Z,71.30
2023-05-23T08:33:29.939Z,71.24
2023-05-23T08:34:29.919Z,71.18
2023-05-23T08:35:40.851Z,71.59
2023-05-23T08:36:29.953Z,72.54
2023-05-23T08:37:29.987Z,72.79
2023-05-23T08:38:29.964Z,72.20
2023-05-23T08:39:29.870Z,72.51
2023-05-23T08:40:29.947Z,72.99
2023-05-23T08:41:29.950Z,72.87
2023-05-23T08:42:29.970Z,72.20
2023-05-23T08:43:29.894Z,71.02
2023-05-23T08:44:29.910Z,71.57
2023-05-23T08:45:29.910Z,71.38
2023-05-23T08:46:30.029Z,70.60
2023-05-23T08:47:30.020Z,71.19
2023-05-23T08:48:29.999Z,70.62
2023-05-23T08:49:30.074Z,71.15
2023-05-23T08:50:30.010Z,70.91
2023-05-23T08:51:30.035Z,70.99
2023-05-23T08:52:30.155Z,70.35
2023-05-23T08:53:30.093Z,71.08
2023-05-23T08:54:30.118Z,70.97
2023-05-23T08:55:30.070Z,70.78
2023-05-23T08:56:30.193Z,71.27
2023-05-23T08:57:30.166Z,71.27
2023-05-23T08:58:30.185Z,70.88
2023-05-23T08:59:30.199Z,71.00
2023-05-23T09:00:30.175Z,71.97
2023-05-23T09:01:30.223Z,71.38
2023-05-23T09:02:30.253Z,71.20
2023-05-23T09:03:30.249Z,70.43
2023-05-23T09:04:30.306Z,70.10
2023-05-23T09:05:30.403Z,70.46
2023-05-23T09:06:30.310Z,70.47
2023-05-23T09:07:30.336Z,70.34
2023-05-23T09:08:30.339Z,72.82
2023-05-23T09:09:30.497Z,70.99
2023-05-23T09:10:30.502Z,71.26
2023-05-23T09:11:30.345Z,72.23
2023-05-23T09:12:30.404Z,72.71
2023-05-23T09:13:30.415Z,72.71
2023-05-23T09:14:30.530Z,71.84
2023-05-23T09:15:38.107Z,72.60
2023-05-23T09:16:30.521Z,71.98
2023-05-23T09:17:32.447Z,70.18
2023-05-23T09:18:30.458Z,69.21
2023-05-23T09:19:30.512Z,69.01
2023-05-23T09:20:30.465Z,70.47
2023-05-23T09:21:30.730Z,70.27
2023-05-23T09:22:30.462Z,69.74
2023-05-23T09:23:30.553Z,69.26
2023-05-23T09:24:30.420Z,69.24
2023-05-23T09:25:30.418Z,69.45
2023-05-23T09:26:30.453Z,69.50
2023-05-23T09:27:30.400Z,69.52
2023-05-23T09:28:30.440Z,69.22
2023-05-23T09:29:30.480Z,68.34
2023-05-23T09:30:30.514Z,67.54
2023-05-23T09:31:30.522Z,67.07
2023-05-23T09:32:30.578Z,67.36
2023-05-23T09:33:30.594Z,68.39
2023-05-23T09:34:30.617Z,69.55
2023-05-23T09:35:30.682Z,68.57
2023-05-23T09:36:30.711Z,67.11
2023-05-23T09:37:30.732Z,67.75
2023-05-23T09:38:30.753Z,68.00
2023-05-23T09:39:31.490Z,68.86
2023-05-23T09:40:31.019Z,68.12
2023-05-23T09:41:30.840Z,67.22
2023-05-23T09:42:30.856Z,65.99
2023-05-23T09:43:30.922Z,66.06
2023-05-23T09:44:30.968Z,66.02
2023-05-23T09:45:31.092Z,66.23
2023-05-23T09:46:31.121Z,65.03
2023-05-23T09:47:31.114Z,66.84
2023-05-23T09:48:31.114Z,67.62
2023-05-23T09:49:31.141Z,68.92
2023-05-23T09:50:31.104Z,66.69
2023-05-23T09:51:31.144Z,66.36
2023-05-23T09:52:31.192Z,66.80
2023-05-23T09:53:31.241Z,66.06
2023-05-23T09:54:31.273Z,65.38
2023-05-23T09:55:31.377Z,63.98
2023-05-23T09:56:31.321Z,62.41
2023-05-23T09:57:31.370Z,61.57
2023-05-23T09:58:31.400Z,58.77
2023-05-23T09:59:31.455Z,59.42
2023-05-23T10:00:31.458Z,58.82
2023-05-23T10:01:31.565Z,57.21
2023-05-23T10:02:31.596Z,58.06
2023-05-23T10:03:31.612Z,59.11
2023-05-23T10:04:31.653Z,58.13
2023-05-23T10:05:31.641Z,55.86
2023-05-23T10:06:31.705Z,55.96
2023-05-23T10:07:31.688Z,54.28
2023-05-23T10:08:31.782Z,53.71
2023-05-23T10:09:31.762Z,52.71
2023-05-23T10:10:31.776Z,52.20
2023-05-23T10:11:31.780Z,50.53
2023-05-23T10:12:31.834Z,51.07
2023-05-23T10:13:31.898Z,50.77
2023-05-23T10:14:31.890Z,49.95
2023-05-23T10:15:31.915Z,49.46
2023-05-23T10:16:32.027Z,49.75
2023-05-23T10:17:32.128Z,49.80
2023-05-23T10:18:32.082Z,49.42
2023-05-23T10:19:32.277Z,49.79
2023-05-23T10:20:32.118Z,47.50
2023-05-23T10:21:32.204Z,48.56
2023-05-23T10:22:32.191Z,48.71
2023-05-23T10:23:32.191Z,47.02
2023-05-23T10:24:39.861Z,46.42
2023-05-23T10:25:32.219Z,46.07
2023-05-23T10:26:32.273Z,44.69
2023-05-23T10:27:32.222Z,42.54
2023-05-23T10:28:32.263Z,43.58
2023-05-23T10:29:32.209Z,41.35
2023-05-23T10:30:32.157Z,42.99
2023-05-23T10:31:32.210Z,44.37
2023-05-23T10:32:32.232Z,44.82
2023-05-23T10:33:32.152Z,44.87
2023-05-23T10:34:32.208Z,43.79
2023-05-23T10:35:32.324Z,44.39
2023-05-23T10:36:32.166Z,45.97
2023-05-23T10:37:32.134Z,47.28
2023-05-23T10:38:32.144Z,46.86
2023-05-23T10:39:32.169Z,47.25
2023-05-23T10:40:32.169Z,46.80
2023-05-23T10:41:32.201Z,45.73
2023-05-23T10:42:32.165Z,45.34
2023-05-23T10:43:32.266Z,43.21
2023-05-23T10:44:32.112Z,43.53
2023-05-23T10:45:32.906Z,43.29
2023-05-23T10:46:32.302Z,43.91
2023-05-23T10:47:33.253Z,44.40
2023-05-23T10:48:34.571Z,43.56
2023-05-23T10:49:32.334Z,43.36
2023-05-23T10:50:32.337Z,44.90
2023-05-23T10:51:32.367Z,43.72
2023-05-23T10:52:32.448Z,42.62
2023-05-23T10:53:32.476Z,42.08
2023-05-23T10:54:32.497Z,44.31
2023-05-23T10:55:32.595Z,44.09
2023-05-23T10:56:32.595Z,44.29
2023-05-23T10:57:32.653Z,43.68
2023-05-23T10:58:32.613Z,43.20
2023-05-23T10:59:32.632Z,44.71
2023-05-23T11:00:32.723Z,42.41
2023-05-23T11:01:32.786Z,41.78
2023-05-23T11:02:32.805Z,39.76
2023-05-23T11:03:32.891Z,38.85
2023-05-23T11:04:32.870Z,39.42
2023-05-23T11:05:40.457Z,39.92
2023-05-23T11:06:32.945Z,40.24
2023-05-23T11:07:32.907Z,41.90
2023-05-23T11:08:46.972Z,42.15
2023-05-23T11:09:33.886Z,41.14
2023-05-23T11:10:32.824Z,43.12
2023-05-23T11:11:32.864Z,44.53
2023-05-23T11:12:32.793Z,43.93
2023-05-23T11:13:32.880Z,43.48
2023-05-23T11:14:32.805Z,42.66
2023-05-23T11:15:32.871Z,40.46
2023-05-23T11:16:32.859Z,40.72
2023-05-23T11:17:32.816Z,40.67
2023-05-23T11:18:32.755Z,42.14
2023-05-23T11:19:32.794Z,40.54
2023-05-23T11:20:32.777Z,40.14
2023-05-23T11:21:32.792Z,38.48
2023-05-23T11:22:32.858Z,37.79
2023-05-23T11:23:32.857Z,36.70
2023-05-23T11:24:32.998Z,36.34
2023-05-23T11:25:32.910Z,36.42
2023-05-23T11:26:32.987Z,37.29
2023-05-23T11:27:32.968Z,39.17
2023-05-23T11:28:33.128Z,37.85
2023-05-23T11:29:33.082Z,35.42
2023-05-23T11:30:33.416Z,35.01
2023-05-23T11:31:33.089Z,36.18
2023-05-23T11:32:33.215Z,35.51
2023-05-23T11:33:33.142Z,33.14
2023-05-23T11:34:33.198Z,33.75
2023-05-23T11:35:33.170Z,33.27
2023-05-23T11:36:33.209Z,32.54
2023-05-23T11:37:33.209Z,31.97
2023-05-23T11:38:33.256Z,31.46
2023-05-23T11:39:33.336Z,30.73
2023-05-23T11:40:33.328Z,31.93
2023-05-23T11:41:33.375Z,32.58
2023-05-23T11:42:33.400Z,33.61
2023-05-23T11:43:33.443Z,33.61
2023-05-23T11:44:33.483Z,34.24
2023-05-23T11:45:33.718Z,33.95
2023-05-23T11:46:33.787Z,33.03
2023-05-23T11:47:33.624Z,32.66
2023-05-23T11:48:33.581Z,34.47
2023-05-23T11:49:33.625Z,38.12
2023-05-23T11:50:33.665Z,36.75
2023-05-23T11:51:33.685Z,35.53
2023-05-23T11:52:33.716Z,34.05
2023-05-23T11:53:33.746Z,33.55
2023-05-23T11:54:33.778Z,35.23
2023-05-23T11:55:33.856Z,35.02
2023-05-23T11:56:33.846Z,33.40
2023-05-23T11:57:33.865Z,33.16
2023-05-23T11:58:33.888Z,31.36
2023-05-23T11:59:33.910Z,30.76
2023-05-23T12:00:34.004Z,33.84
2023-05-23T12:01:34.083Z,34.76
2023-05-23T12:02:34.131Z,33.49
2023-05-23T12:03:34.249Z,33.06
2023-05-23T12:04:34.163Z,32.10
2023-05-23T12:05:34.171Z,32.06
2023-05-23T12:06:34.173Z,31.02
2023-05-23T12:07:34.205Z,30.07
2023-05-23T12:08:34.228Z,30.94
2023-05-23T12:09:34.272Z,33.76
2023-05-23T12:10:34.305Z,37.34
2023-05-23T12:11:34.314Z,36.36
2023-05-23T12:12:34.361Z,36.26
2023-05-23T12:13:34.429Z,37.12
2023-05-23T12:14:34.412Z,36.43
2023-05-23T12:15:34.468Z,34.78
2023-05-23T12:16:34.428Z,33.51
2023-05-23T12:17:34.465Z,32.89
2023-05-23T12:18:35.205Z,36.31
2023-05-23T12:19:34.596Z,35.46
2023-05-23T12:20:34.573Z,37.22
2023-05-23T12:21:34.594Z,37.67
2023-05-23T12:22:34.586Z,35.84
2023-05-23T12:23:35.297Z,34.63
2023-05-23T12:24:34.684Z,33.58
2023-05-23T12:25:34.821Z,34.10
2023-05-23T12:26:34.776Z,34.68
2023-05-23T12:27:34.806Z,36.98
2023-05-23T12:28:34.821Z,36.17
2023-05-23T12:29:35.571Z,35.31
2023-05-23T12:30:34.862Z,37.86
2023-05-23T12:31:34.884Z,37.41
2023-05-23T12:32:34.947Z,36.17
2023-05-23T12:33:34.977Z,37.13
2023-05-23T12:34:34.959Z,37.20
2023-05-23T12:35:35.050Z,35.87
2023-05-23T12:36:36.227Z,35.17
2023-05-23T12:37:35.082Z,36.28
2023-05-23T12:38:35.060Z,38.73
2023-05-23T12:39:35.059Z,37.43
2023-05-23T12:40:35.129Z,36.60
2023-05-23T12:41:35.029Z,36.48
2023-05-23T12:42:35.031Z,38.79
2023-05-23T12:43:35.022Z,38.67
2023-05-23T12:44:34.954Z,37.97
2023-05-23T12:45:35.025Z,38.11
2023-05-23T12:46:35.104Z,38.07
2023-05-23T12:47:35.084Z,38.42
2023-05-23T12:48:35.014Z,39.23
2023-05-23T12:49:35.013Z,40.63
2023-05-23T12:50:35.020Z,40.88
2023-05-23T12:51:34.959Z,41.97
2023-05-23T12:52:34.971Z,41.58
2023-05-23T12:53:34.982Z,41.49